createdAt,value
2023-02-20T00:01:09.260Z,46.6
2023-02-20T00:02:25.408Z,46.7
2023-02-20T00:03:41.530Z,46.6
2023-02-20T00:04:57.673Z,46.7
2023-02-20T00:06:13.793Z,46.7
2023-02-20T00:07:29.955Z,46.7
2023-02-20T00:08:46.091Z,46.6
2023-02-20T00:10:02.207Z,46.7
2023-02-20T00:11:18.344Z,46.7
2023-02-20T00:12:34.473Z,46.7
2023-02-20T00:13:50.632Z,46.6
2023-02-20T00:15:06.769Z,46.7
2023-02-20T00:16:22.896Z,46.6
2023-02-20T00:17:39.029Z,46.7
2023-02-20T00:18:55.161Z,46.6
2023-02-20T00:20:11.320Z,46.6
2023-02-20T00:21:27.449Z,46.6
2023-02-20T00:22:43.571Z,46.7
2023-02-20T00:23:59.701Z,46.6
2023-02-20T00:25:15.842Z,46.6
2023-02-20T00:26:32.000Z,46.7
2023-02-20T00:27:48.181Z,46.7
2023-02-20T00:29:03.430Z,46.7
2023-02-20T00:30:19.618Z,46.6
2023-02-20T00:31:34.823Z,46.7
2023-02-20T00:32:50.954Z,46.7
2023-02-20T00:34:07.091Z,46.6
2023-02-20T00:35:23.213Z,46.7
2023-02-20T00:36:39.369Z,46.7
2023-02-20T00:37:55.495Z,46.7
2023-02-20T00:39:11.642Z,46.7
2023-02-20T00:40:27.762Z,46.7
2023-02-20T00:41:43.894Z,46.7
2023-02-20T00:43:00.047Z,46.7
2023-02-20T00:44:16.192Z,46.7
2023-02-20T00:45:32.327Z,46.6
2023-02-20T00:46:48.459Z,46.6
2023-02-20T00:48:04.575Z,46.6
2023-02-20T00:49:20.742Z,46.7
2023-02-20T00:50:36.875Z,46.7
2023-02-20T00:51:52.997Z,46.7
2023-02-20T00:53:09.141Z,46.7
2023-02-20T00:54:25.257Z,46.7
2023-02-20T00:55:41.412Z,46.6
2023-02-20T00:56:57.551Z,46.7
2023-02-20T00:58:13.690Z,46.8
2023-02-20T00:59:29.812Z,46.7
2023-02-20T01:00:45.955Z,46.7
2023-02-20T01:02:02.098Z,46.7
2023-02-20T01:03:18.290Z,46.7
2023-02-20T01:04:33.519Z,46.7
2023-02-20T01:05:48.732Z,46.7
2023-02-20T01:07:04.872Z,46.8
2023-02-20T01:08:20.992Z,46.8
2023-02-20T01:09:37.135Z,46.8
2023-02-20T01:10:53.277Z,46.8
2023-02-20T01:12:09.419Z,46.8
2023-02-20T01:13:25.550Z,46.7
2023-02-20T01:14:41.690Z,46.7
2023-02-20T01:15:57.825Z,46.8
2023-02-20T01:17:13.958Z,46.7
2023-02-20T01:18:30.091Z,46.7
2023-02-20T01:19:46.222Z,46.7
2023-02-20T01:21:02.360Z,46.7
2023-02-20T01:22:18.497Z,46.7
2023-02-20T01:23:34.628Z,46.7
2023-02-20T01:24:50.783Z,46.6
2023-02-20T01:26:06.912Z,46.6
2023-02-20T01:27:23.046Z,46.6
2023-02-20T01:28:39.183Z,46.6
2023-02-20T01:29:55.308Z,46.6
2023-02-20T01:31:11.463Z,46.6
2023-02-20T01:32:27.589Z,46.6
2023-02-20T01:33:43.727Z,46.6
2023-02-20T01:34:59.869Z,46.6
2023-02-20T01:36:16.003Z,46.6
2023-02-20T01:37:32.210Z,46.6
2023-02-20T01:38:47.434Z,46.6
2023-02-20T01:40:02.652Z,46.6
2023-02-20T01:41:18.787Z,46.6
2023-02-20T01:42:34.934Z,46.6
2023-02-20T01:43:51.054Z,46.6
2023-02-20T01:45:07.198Z,46.6
2023-02-20T01:46:23.334Z,46.6
2023-02-20T01:47:39.473Z,46.5
2023-02-20T01:48:55.610Z,46.5
2023-02-20T01:50:11.737Z,46.6
2023-02-20T01:51:27.875Z,46.5
2023-02-20T01:52:44.012Z,46.6
2023-02-20T01:54:00.157Z,46.5
2023-02-20T01:55:16.286Z,46.6
2023-02-20T01:56:32.417Z,46.6
2023-02-20T01:57:48.552Z,46.5
2023-02-20T01:59:04.697Z,46.5
2023-02-20T02:00:20.844Z,46.5
2023-02-20T02:01:36.978Z,46.5
2023-02-20T02:02:53.100Z,46.5
2023-02-20T02:04:09.228Z,46.5
2023-02-20T02:05:25.372Z,46.5
2023-02-20T02:06:41.530Z,46.4
2023-02-20T02:07:57.649Z,46.4
2023-02-20T02:09:13.782Z,46.5
2023-02-20T02:10:29.921Z,46.5
2023-02-20T02:11:46.112Z,46.5
2023-02-20T02:13:01.344Z,46.4
2023-02-20T02:14:17.549Z,46.4
2023-02-20T02:15:32.755Z,46.4
2023-02-20T02:16:48.892Z,46.4
2023-02-20T02:18:05.033Z,46.4
2023-02-20T02:19:21.151Z,46.5
2023-02-20T02:20:37.298Z,46.4
2023-02-20T02:21:53.429Z,46.4
2023-02-20T02:23:09.582Z,46.4
2023-02-20T02:24:25.710Z,46.5
2023-02-20T02:25:41.834Z,46.4
2023-02-20T02:26:57.970Z,46.4
2023-02-20T02:28:14.103Z,46.4
2023-02-20T02:29:30.257Z,46.5
2023-02-20T02:30:46.383Z,46.5
2023-02-20T02:32:02.534Z,46.4
2023-02-20T02:33:18.654Z,46.4
2023-02-20T02:34:34.787Z,46.4
2023-02-20T02:35:50.932Z,46.4
2023-02-20T02:37:07.065Z,46.4
2023-02-20T02:38:23.196Z,46.4
2023-02-20T02:39:39.346Z,46.4
2023-02-20T02:40:55.476Z,46.4
2023-02-20T02:42:11.625Z,46.4
2023-02-20T02:43:27.753Z,46.4
2023-02-20T02:44:43.894Z,46.4
2023-02-20T02:46:00.016Z,46.4
2023-02-20T02:47:16.207Z,46.3
2023-02-20T02:48:31.455Z,46.4
2023-02-20T02:49:46.660Z,46.3
2023-02-20T02:51:01.810Z,46.3
2023-02-20T02:52:17.946Z,46.3
2023-02-20T02:53:34.073Z,46.3
2023-02-20T02:54:50.219Z,46.3
2023-02-20T02:56:06.347Z,46.3
2023-02-20T02:57:22.484Z,46.3
2023-02-20T02:58:38.618Z,46.3
2023-02-20T02:59:54.750Z,46.3
2023-02-20T03:01:10.902Z,46.3
2023-02-20T03:02:27.017Z,46.2
2023-02-20T03:03:43.171Z,46.3
2023-02-20T03:04:59.313Z,46.3
2023-02-20T03:06:15.446Z,46.3
2023-02-20T03:07:31.582Z,46.4
2023-02-20T03:08:47.710Z,46.3
2023-02-20T03:10:03.847Z,46.3
2023-02-20T03:11:19.980Z,46.3
2023-02-20T03:12:36.118Z,46.4
2023-02-20T03:13:52.255Z,46.4
2023-02-20T03:15:08.399Z,46.4
2023-02-20T03:16:24.529Z,46.4
2023-02-20T03:17:40.669Z,46.4
2023-02-20T03:18:56.815Z,46.4
2023-02-20T03:20:12.939Z,46.4
2023-02-20T03:21:29.074Z,46.4
2023-02-20T03:22:45.211Z,46.3
2023-02-20T03:24:01.348Z,46.4
2023-02-20T03:25:17.480Z,46.4
2023-02-20T03:26:33.624Z,46.4
2023-02-20T03:27:49.761Z,46.4
2023-02-20T03:29:05.902Z,46.4
2023-02-20T03:30:22.026Z,46.5
2023-02-20T03:31:38.159Z,46.4
2023-02-20T03:32:54.306Z,46.3
2023-02-20T03:34:10.443Z,46.4
2023-02-20T03:35:26.582Z,46.4
2023-02-20T03:36:42.719Z,46.5
2023-02-20T03:37:58.908Z,46.3
2023-02-20T03:39:14.153Z,46.4
2023-02-20T03:40:29.345Z,46.4
2023-02-20T03:41:45.495Z,46.4
2023-02-20T03:43:01.617Z,46.5
2023-02-20T03:44:17.750Z,46.5
2023-02-20T03:45:33.894Z,46.5
2023-02-20T03:46:50.030Z,46.4
2023-02-20T03:48:06.165Z,46.4
2023-02-20T03:49:22.306Z,46.4
2023-02-20T03:50:38.433Z,46.5
2023-02-20T03:51:54.586Z,46.4
2023-02-20T03:53:10.723Z,46.4
2023-02-20T03:54:26.839Z,46.4
2023-02-20T03:56:59.107Z,46.4
2023-02-20T03:58:15.275Z,46.4
2023-02-20T03:59:31.394Z,46.3
2023-02-20T04:00:47.525Z,46.4
2023-02-20T04:03:19.790Z,46.4
2023-02-20T04:04:35.951Z,46.4
2023-02-20T04:05:52.074Z,46.3
2023-02-20T04:07:08.221Z,46.4
2023-02-20T04:08:24.355Z,46.3
2023-02-20T04:09:40.486Z,46.4
2023-02-20T04:10:56.624Z,46.5
2023-02-20T04:12:12.823Z,46.3
2023-02-20T04:13:28.080Z,46.3
2023-02-20T04:14:43.285Z,46.4
2023-02-20T04:15:59.416Z,46.4
2023-02-20T04:17:15.553Z,46.4
2023-02-20T04:18:31.689Z,46.3
2023-02-20T04:19:47.820Z,46.4
2023-02-20T04:21:03.962Z,46.4
2023-02-20T04:22:20.098Z,46.3
2023-02-20T04:23:36.233Z,46.3
2023-02-20T04:24:52.358Z,46.2
2023-02-20T04:26:08.507Z,46.3
2023-02-20T04:27:24.647Z,46.3
2023-02-20T04:28:40.781Z,46.3
2023-02-20T04:29:56.922Z,46.4
2023-02-20T04:31:13.047Z,46.4
2023-02-20T04:32:29.189Z,46.3
2023-02-20T04:33:45.334Z,46.2
2023-02-20T04:35:01.465Z,46.2
2023-02-20T04:36:17.585Z,46.2
2023-02-20T04:37:33.721Z,46.2
2023-02-20T04:38:49.855Z,46.3
2023-02-20T04:40:06.005Z,46.3
2023-02-20T04:41:22.142Z,46.3
2023-02-20T04:42:38.279Z,46.3
2023-02-20T04:43:54.412Z,46.3
2023-02-20T04:45:10.538Z,46.3
2023-02-20T04:46:26.744Z,46.3
2023-02-20T04:47:41.997Z,46.3
2023-02-20T04:48:58.185Z,46.4
2023-02-20T04:50:13.387Z,46.3
2023-02-20T04:51:29.523Z,46.3
2023-02-20T04:52:45.659Z,46.3
2023-02-20T04:54:01.790Z,46.3
2023-02-20T04:55:17.926Z,46.3
2023-02-20T04:56:34.078Z,46.3
2023-02-20T04:57:50.202Z,46.3
2023-02-20T04:59:06.338Z,46.3
2023-02-20T05:00:22.465Z,46.3
2023-02-20T05:01:38.599Z,46.3
2023-02-20T05:02:54.742Z,46.3
2023-02-20T05:04:10.893Z,46.3
2023-02-20T05:05:27.016Z,46.3
2023-02-20T05:06:43.144Z,46.3
2023-02-20T05:07:59.276Z,46.3
2023-02-20T05:09:15.437Z,46.4
2023-02-20T05:10:31.564Z,46.2
2023-02-20T05:11:47.699Z,46.3
2023-02-20T05:13:03.840Z,46.3
2023-02-20T05:14:19.966Z,46.3
2023-02-20T05:15:36.105Z,46.3
2023-02-20T05:16:52.246Z,46.3
2023-02-20T05:18:08.376Z,46.3
2023-02-20T05:19:24.520Z,46.2
2023-02-20T05:20:40.647Z,46.4
2023-02-20T05:21:56.860Z,46.4
2023-02-20T05:23:12.098Z,46.4
2023-02-20T05:24:27.305Z,46.4
2023-02-20T05:25:43.442Z,46.4
2023-02-20T05:26:59.569Z,46.4
2023-02-20T05:28:15.702Z,46.4
2023-02-20T05:29:31.849Z,46.4
2023-02-20T05:30:47.982Z,46.3
2023-02-20T05:32:04.122Z,46.3
2023-02-20T05:33:20.253Z,46.3
2023-02-20T05:34:36.392Z,46.4
2023-02-20T05:35:52.528Z,46.3
2023-02-20T05:37:08.649Z,46.3
2023-02-20T05:38:24.813Z,46.3
2023-02-20T05:39:40.948Z,46.3
2023-02-20T05:40:57.068Z,46.4
2023-02-20T05:42:13.204Z,46.4
2023-02-20T05:43:29.332Z,46.3
2023-02-20T05:44:45.486Z,46.4
2023-02-20T05:46:01.614Z,46.4
2023-02-20T05:47:17.748Z,46.5
2023-02-20T05:48:33.877Z,46.4
2023-02-20T05:49:50.025Z,46.5
2023-02-20T05:51:06.174Z,46.5
2023-02-20T05:52:22.301Z,46.5
2023-02-20T05:53:38.440Z,46.6
2023-02-20T05:54:54.562Z,46.6
2023-02-20T05:56:10.756Z,46.5
2023-02-20T05:57:25.989Z,46.5
2023-02-20T05:58:41.208Z,46.6
2023-02-20T05:59:56.364Z,46.6
2023-02-20T06:01:12.493Z,46.6
2023-02-20T06:02:28.626Z,46.6
2023-02-20T06:03:44.749Z,46.7
2023-02-20T06:05:00.882Z,46.7
2023-02-20T06:06:17.033Z,46.7
2023-02-20T06:08:50.141Z,46.7
2023-02-20T06:10:05.456Z,46.7
2023-02-20T06:11:21.584Z,46.7
2023-02-20T06:12:37.728Z,46.8
2023-02-20T06:13:53.874Z,46.7
2023-02-20T06:15:09.993Z,46.7
2023-02-20T06:16:26.137Z,46.9
2023-02-20T06:17:42.269Z,46.8
2023-02-20T06:18:58.408Z,46.9
2023-02-20T06:20:14.557Z,46.9
2023-02-20T06:21:30.683Z,46.8
2023-02-20T06:22:46.806Z,46.9
2023-02-20T06:24:02.948Z,46.9
2023-02-20T06:25:19.102Z,46.8
2023-02-20T06:26:35.230Z,47
2023-02-20T06:27:51.364Z,46.9
2023-02-20T06:29:07.495Z,46.9
2023-02-20T06:30:23.638Z,46.9
2023-02-20T06:31:39.772Z,47
2023-02-20T06:32:55.904Z,46.9
2023-02-20T06:34:12.044Z,47
2023-02-20T06:35:28.168Z,47
2023-02-20T06:36:44.316Z,46.9
2023-02-20T06:38:00.463Z,47
2023-02-20T06:39:16.000Z,47
2023-02-20T06:40:32.734Z,47
2023-02-20T06:41:48.862Z,47.1
2023-02-20T06:43:04.996Z,47.2
2023-02-20T06:44:21.134Z,47.1
2023-02-20T06:45:37.270Z,47.1
2023-02-20T06:46:53.475Z,47.1
2023-02-20T06:48:08.698Z,47.1
2023-02-20T06:49:23.918Z,47.1
2023-02-20T06:50:40.049Z,47
2023-02-20T06:53:12.306Z,46.9
2023-02-20T06:54:28.468Z,47
2023-02-20T06:55:44.590Z,46.9
2023-02-20T06:57:00.735Z,46.9
2023-02-20T06:58:16.858Z,46.9
2023-02-20T06:59:32.990Z,46.8
2023-02-20T07:00:49.150Z,46.7
2023-02-20T07:02:05.297Z,46.7
2023-02-20T07:03:21.435Z,46.6
2023-02-20T07:04:37.560Z,46.6
2023-02-20T07:07:09.834Z,46.5
2023-02-20T07:08:25.983Z,46.5
2023-02-20T07:09:42.115Z,46.5
2023-02-20T07:10:58.236Z,46.5
2023-02-20T07:12:14.384Z,46.5
2023-02-20T07:13:30.516Z,46.5
2023-02-20T07:14:46.657Z,46.4
2023-02-20T07:16:02.781Z,46.4
2023-02-20T07:17:18.922Z,46.3
2023-02-20T07:18:35.060Z,46.3
2023-02-20T07:19:51.207Z,46.3
2023-02-20T07:21:07.394Z,46.3
2023-02-20T07:22:22.634Z,46.3
2023-02-20T07:23:38.818Z,46.2
2023-02-20T07:24:54.032Z,46.2
2023-02-20T07:26:10.166Z,46.2
2023-02-20T07:27:26.292Z,46.1
2023-02-20T07:28:42.437Z,46.1
2023-02-20T07:29:58.579Z,46.1
2023-02-20T07:31:14.717Z,46.1
2023-02-20T07:32:30.851Z,46.1
2023-02-20T07:33:46.979Z,46
2023-02-20T07:35:03.106Z,46
2023-02-20T07:36:19.273Z,46
2023-02-20T07:37:35.404Z,46
2023-02-20T07:38:51.532Z,46
2023-02-20T07:40:07.661Z,46
2023-02-20T07:41:23.801Z,46
2023-02-20T07:42:39.951Z,46
2023-02-20T07:43:56.069Z,46.1
2023-02-20T07:45:12.216Z,46.1
2023-02-20T07:46:28.346Z,46.1
2023-02-20T07:47:44.468Z,46
2023-02-20T07:49:00.625Z,46
2023-02-20T07:50:16.754Z,46
2023-02-20T07:51:32.890Z,46
2023-02-20T07:52:49.026Z,46
2023-02-20T07:54:05.160Z,46.2
2023-02-20T07:55:21.311Z,45.9
2023-02-20T07:56:37.487Z,45.9
2023-02-20T07:59:08.921Z,45.8
2023-02-20T08:00:24.133Z,45.8
2023-02-20T08:01:40.273Z,45.7
2023-02-20T08:02:56.401Z,45.6
2023-02-20T08:04:12.538Z,45.6
2023-02-20T08:05:28.680Z,45.6
2023-02-20T08:06:44.807Z,45.6
2023-02-20T08:09:17.073Z,45.5
2023-02-20T08:10:33.211Z,45.6
2023-02-20T08:11:49.366Z,45.5
2023-02-20T08:13:05.492Z,45.4
2023-02-20T08:14:21.621Z,45.3
2023-02-20T08:15:37.763Z,45.1
2023-02-20T08:16:53.887Z,45.1
2023-02-20T08:18:10.035Z,45.1
2023-02-20T08:19:26.174Z,45
2023-02-20T08:20:42.303Z,44.9
2023-02-20T08:21:58.442Z,44.8
2023-02-20T08:23:14.564Z,44.8
2023-02-20T08:24:30.725Z,44.7
2023-02-20T08:25:46.847Z,44.8
2023-02-20T08:27:02.991Z,44.7
2023-02-20T08:28:19.112Z,44.7
2023-02-20T08:29:35.245Z,44.7
2023-02-20T08:30:51.401Z,44.7
2023-02-20T08:32:07.596Z,44.7
2023-02-20T08:33:22.799Z,44.7
2023-02-20T08:34:37.950Z,44.8
2023-02-20T08:35:54.095Z,44.8
2023-02-20T08:37:10.233Z,44.7
2023-02-20T08:38:26.360Z,44.7
2023-02-20T08:39:42.496Z,44.8
2023-02-20T08:40:58.645Z,44.7
2023-02-20T08:42:14.764Z,44.6
2023-02-20T08:43:30.912Z,44.6
2023-02-20T08:44:47.032Z,44.5
2023-02-20T08:46:03.164Z,44.4
2023-02-20T08:47:19.311Z,44.3
2023-02-20T08:48:35.444Z,44.1
2023-02-20T08:49:51.583Z,44
2023-02-20T08:51:07.712Z,43.9
2023-02-20T08:52:23.843Z,43.8
2023-02-20T08:53:40.005Z,43.6
2023-02-20T08:54:56.136Z,43.5
2023-02-20T08:56:12.267Z,43.4
2023-02-20T08:57:28.392Z,43.4
2023-02-20T08:58:44.530Z,43.3
2023-02-20T09:00:00.689Z,43.2
2023-02-20T09:01:16.805Z,43.2
2023-02-20T09:02:32.943Z,43
2023-02-20T09:03:49.076Z,43
2023-02-20T09:05:05.213Z,42.9
2023-02-20T09:06:21.372Z,42.9
2023-02-20T09:07:37.499Z,42.9
2023-02-20T09:08:53.633Z,42.8
2023-02-20T09:10:09.758Z,42.7
2023-02-20T09:11:25.903Z,42.6
2023-02-20T09:12:42.038Z,42.5
2023-02-20T09:13:58.179Z,42.4
2023-02-20T09:15:14.311Z,42.4
2023-02-20T09:16:30.455Z,42.4
2023-02-20T09:17:46.575Z,42.4
2023-02-20T09:19:02.724Z,42.4
2023-02-20T09:20:18.856Z,42.4
2023-02-20T09:21:35.046Z,42.3
2023-02-20T09:22:50.287Z,42
2023-02-20T09:24:05.494Z,42
2023-02-20T09:25:21.631Z,41.9
2023-02-20T09:26:37.775Z,41.7
2023-02-20T09:27:53.900Z,41.5
2023-02-20T09:29:10.041Z,41.3
2023-02-20T09:30:26.189Z,41.1
2023-02-20T09:31:42.323Z,40.8
2023-02-20T09:32:58.455Z,40.6
2023-02-20T09:34:14.590Z,40.3
2023-02-20T09:35:30.722Z,40.1
2023-02-20T09:36:46.852Z,39.7
2023-02-20T09:38:03.001Z,39.5
2023-02-20T09:39:19.124Z,39.4
2023-02-20T09:40:35.259Z,39.3
2023-02-20T09:41:51.410Z,39.2
2023-02-20T09:43:07.548Z,39
2023-02-20T09:44:23.000Z,38.9
2023-02-20T09:45:39.812Z,38.9
2023-02-20T09:46:55.939Z,38.9
2023-02-20T09:48:12.101Z,39
2023-02-20T09:49:28.232Z,39
2023-02-20T09:50:44.366Z,39.1
2023-02-20T09:52:00.490Z,39.2
2023-02-20T09:53:16.622Z,39.4
2023-02-20T09:54:32.764Z,39.5
2023-02-20T09:55:48.958Z,39.6
2023-02-20T09:57:04.199Z,39.7
2023-02-20T09:58:20.390Z,39.6
2023-02-20T09:59:35.600Z,39.5
2023-02-20T10:00:51.727Z,39.5
2023-02-20T10:02:07.863Z,39.6
2023-02-20T10:03:23.994Z,39.6
2023-02-20T10:04:40.142Z,39.6
2023-02-20T10:05:56.279Z,39.4
2023-02-20T10:07:12.417Z,39.3
2023-02-20T10:08:28.556Z,39.1
2023-02-20T10:09:44.682Z,39.2
2023-02-20T10:11:00.829Z,39.2
2023-02-20T10:12:16.962Z,39.3
2023-02-20T10:13:33.108Z,39.5
2023-02-20T10:14:49.228Z,39.7
2023-02-20T10:16:05.357Z,39.9
2023-02-20T10:17:21.519Z,40.2
2023-02-20T10:18:37.641Z,40.4
2023-02-20T10:19:53.787Z,40.5
2023-02-20T10:21:09.914Z,40.7
2023-02-20T10:22:26.047Z,40.9
2023-02-20T10:23:42.189Z,41
2023-02-20T10:24:58.324Z,41.2
2023-02-20T10:26:14.456Z,41.3
2023-02-20T10:27:30.606Z,41.4
2023-02-20T10:28:46.725Z,41.5
2023-02-20T10:30:02.881Z,41.6
2023-02-20T10:31:19.071Z,41.8
2023-02-20T10:32:34.312Z,41.8
2023-02-20T10:33:49.520Z,41.8
2023-02-20T10:35:05.000Z,41.9
2023-02-20T10:36:21.773Z,42
2023-02-20T10:37:37.911Z,42.1
2023-02-20T10:38:54.049Z,42.2
2023-02-20T10:40:10.197Z,42.3
2023-02-20T10:41:26.330Z,42.3
2023-02-20T10:42:42.464Z,42.4
2023-02-20T10:43:58.594Z,42.5
2023-02-20T10:45:14.735Z,42.6
2023-02-20T10:46:30.888Z,42.7
2023-02-20T10:47:47.010Z,42.9
2023-02-20T10:49:03.146Z,43
2023-02-20T10:50:19.281Z,43.1
2023-02-20T10:51:35.412Z,43.2
2023-02-20T10:52:51.551Z,43.3
2023-02-20T10:54:07.696Z,43.3
2023-02-20T10:55:23.828Z,43.4
2023-02-20T10:56:39.952Z,43.5
2023-02-20T10:57:56.101Z,43.5
2023-02-20T10:59:12.235Z,43.6
2023-02-20T11:00:28.380Z,43.7
2023-02-20T11:01:44.498Z,43.8
2023-02-20T11:03:00.635Z,43.9
2023-02-20T11:04:16.778Z,44
2023-02-20T11:05:32.973Z,44
2023-02-20T11:06:48.212Z,44.1
2023-02-20T11:08:03.433Z,44.1
2023-02-20T11:09:19.565Z,44.2
2023-02-20T11:10:35.000Z,44.2
2023-02-20T11:11:51.839Z,44.2
2023-02-20T11:13:07.962Z,44.3
2023-02-20T11:14:24.103Z,44.3
2023-02-20T11:15:40.250Z,44.3
2023-02-20T11:16:56.379Z,44.4
2023-02-20T11:18:12.524Z,44.4
2023-02-20T11:19:28.651Z,44.5
2023-02-20T11:20:44.794Z,44.5
2023-02-20T11:22:00.932Z,44.6
2023-02-20T11:23:17.068Z,44.6
2023-02-20T11:24:33.202Z,44.6
2023-02-20T11:25:49.331Z,44.6
2023-02-20T11:27:05.472Z,44.7
2023-02-20T11:28:21.617Z,44.7
2023-02-20T11:29:37.753Z,44.8
2023-02-20T11:30:53.880Z,44.8
2023-02-20T11:32:10.008Z,44.8
2023-02-20T11:33:26.158Z,45
2023-02-20T11:34:42.295Z,45
2023-02-20T11:35:58.423Z,45
2023-02-20T11:37:14.556Z,45
2023-02-20T11:38:30.707Z,45
2023-02-20T11:39:46.900Z,45
2023-02-20T11:41:02.135Z,45
2023-02-20T11:42:18.330Z,45.1
2023-02-20T11:43:33.532Z,45.1
2023-02-20T11:44:49.682Z,45.1
2023-02-20T11:46:05.801Z,45.1
2023-02-20T11:47:21.942Z,45.1
2023-02-20T11:48:38.075Z,45.1
2023-02-20T11:49:54.212Z,45.3
2023-02-20T11:51:10.362Z,45.3
2023-02-20T11:52:26.495Z,45.3
2023-02-20T11:53:42.612Z,45.3
2023-02-20T11:54:58.753Z,45.3
2023-02-20T11:56:14.891Z,45.4
2023-02-20T11:57:31.036Z,45.5
2023-02-20T11:58:47.170Z,45.5
2023-02-20T12:00:03.309Z,45.5
2023-02-20T12:01:19.431Z,45.5
2023-02-20T12:02:35.564Z,45.5
2023-02-20T12:03:51.724Z,45.5
2023-02-20T12:05:07.851Z,45.5
2023-02-20T12:06:23.984Z,45.5
2023-02-20T12:07:40.114Z,45.5
2023-02-20T12:08:56.254Z,45.5
2023-02-20T12:10:12.403Z,45.5
2023-02-20T12:11:28.531Z,45.5
2023-02-20T12:12:44.662Z,45.5
2023-02-20T12:14:00.802Z,45.3
2023-02-20T12:15:16.988Z,45.5
2023-02-20T12:16:32.219Z,45.5
2023-02-20T12:17:47.444Z,45.3
2023-02-20T12:19:03.563Z,45.3
2023-02-20T12:20:19.725Z,45.3
2023-02-20T12:21:35.853Z,45.3
2023-02-20T12:22:51.985Z,45.3
2023-02-20T12:24:08.121Z,45.5
2023-02-20T12:25:24.240Z,45.3
2023-02-20T12:26:40.400Z,45.3
2023-02-20T12:27:56.533Z,45.5
2023-02-20T12:29:12.660Z,45.5
2023-02-20T12:30:28.796Z,45.3
2023-02-20T12:31:44.000Z,45.3
2023-02-20T12:33:01.085Z,45.4
2023-02-20T12:34:17.212Z,45.3
2023-02-20T12:35:33.340Z,45.4
2023-02-20T12:36:49.486Z,45.4
2023-02-20T12:38:05.621Z,45.3
2023-02-20T12:39:21.753Z,45.3
2023-02-20T12:40:37.902Z,45.3
2023-02-20T12:41:54.019Z,45.3
2023-02-20T12:43:10.153Z,45.3
2023-02-20T12:44:26.298Z,45.3
2023-02-20T12:45:42.440Z,45.3
2023-02-20T12:46:58.580Z,45.2
2023-02-20T12:48:14.715Z,45.3
2023-02-20T12:49:30.897Z,45.3
2023-02-20T12:50:46.163Z,45.3
2023-02-20T12:52:01.378Z,45.3
2023-02-20T12:53:16.519Z,45.3
2023-02-20T12:54:32.669Z,45.3
2023-02-20T12:55:48.807Z,45.5
2023-02-20T12:57:04.935Z,45.5
2023-02-20T12:58:21.073Z,45.5
2023-02-20T12:59:37.211Z,45.5
2023-02-20T13:00:53.352Z,45.5
2023-02-20T13:02:09.492Z,45.3
2023-02-20T13:03:25.621Z,45.5
2023-02-20T13:04:41.742Z,45.5
2023-02-20T13:05:57.880Z,45.5
2023-02-20T13:07:14.036Z,45.5
2023-02-20T13:08:30.162Z,45.5
2023-02-20T13:09:46.301Z,45.5
2023-02-20T13:11:02.436Z,45.5
2023-02-20T13:12:18.570Z,45.5
2023-02-20T13:13:34.705Z,45.5
2023-02-20T13:14:50.855Z,45.5
2023-02-20T13:16:06.974Z,45.6
2023-02-20T13:17:23.109Z,45.6
2023-02-20T13:18:39.256Z,45.6
2023-02-20T13:19:55.394Z,45.6
2023-02-20T13:21:11.523Z,45.6
2023-02-20T13:22:27.663Z,45.7
2023-02-20T13:23:43.791Z,45.7
2023-02-20T13:24:59.923Z,45.7
2023-02-20T13:26:16.070Z,45.7
2023-02-20T13:27:32.214Z,45.7
2023-02-20T13:28:48.346Z,45.6
2023-02-20T13:30:04.466Z,45.6
2023-02-20T13:31:20.599Z,45.5
2023-02-20T13:32:36.747Z,45.5
2023-02-20T13:33:52.887Z,45.5
2023-02-20T13:35:09.023Z,45.5
2023-02-20T13:36:25.158Z,45.4
2023-02-20T13:37:41.298Z,45.4
2023-02-20T13:38:57.440Z,45.4
2023-02-20T13:40:13.636Z,45.5
2023-02-20T13:41:28.874Z,45.5
2023-02-20T13:42:44.076Z,45.5
2023-02-20T13:44:00.200Z,45.5
2023-02-20T13:45:16.332Z,45.6
2023-02-20T13:46:32.468Z,45.5
2023-02-20T13:47:48.604Z,45.6
2023-02-20T13:49:04.763Z,45.6
2023-02-20T13:50:20.880Z,45.6
2023-02-20T13:51:37.030Z,45.7
2023-02-20T13:52:53.165Z,45.7
2023-02-20T13:54:09.282Z,45.6
2023-02-20T13:55:25.427Z,45.6
2023-02-20T13:56:41.572Z,45.7
2023-02-20T13:57:57.697Z,45.7
2023-02-20T13:59:13.844Z,45.8
2023-02-20T14:01:46.110Z,45.8
2023-02-20T14:03:02.253Z,45.7
2023-02-20T14:04:18.384Z,45.7
2023-02-20T14:05:34.520Z,45.7
2023-02-20T14:06:50.659Z,45.7
2023-02-20T14:08:06.795Z,45.7
2023-02-20T14:09:22.932Z,45.7
2023-02-20T14:10:39.067Z,45.7
2023-02-20T14:11:55.189Z,45.7
2023-02-20T14:13:11.325Z,45.7
2023-02-20T14:14:27.534Z,45.7
2023-02-20T14:15:42.775Z,45.7
2023-02-20T14:16:58.970Z,45.7
2023-02-20T14:18:14.170Z,45.7
2023-02-20T14:19:30.311Z,45.7
2023-02-20T14:20:46.437Z,45.7
2023-02-20T14:22:02.575Z,45.8
2023-02-20T14:23:18.708Z,45.9
2023-02-20T14:24:34.857Z,45.9
2023-02-20T14:25:50.979Z,45.8
2023-02-20T14:27:07.128Z,45.8
2023-02-20T14:28:23.264Z,45.7
2023-02-20T14:29:39.396Z,45.7
2023-02-20T14:30:55.529Z,45.7
2023-02-20T14:32:11.665Z,45.7
2023-02-20T14:33:27.794Z,45.8
2023-02-20T14:34:43.944Z,45.8
2023-02-20T14:36:00.067Z,45.8
2023-02-20T14:37:16.211Z,45.8
2023-02-20T14:38:32.365Z,45.8
2023-02-20T14:39:48.491Z,45.8
2023-02-20T14:41:04.619Z,45.9
2023-02-20T14:42:20.751Z,45.9
2023-02-20T14:43:36.898Z,45.9
2023-02-20T14:44:53.035Z,45.9
2023-02-20T14:46:09.170Z,45.9
2023-02-20T14:47:25.301Z,45.9
2023-02-20T14:48:41.433Z,45.9
2023-02-20T14:49:57.636Z,45.9
2023-02-20T14:51:12.867Z,45.8
2023-02-20T14:52:28.076Z,45.8
2023-02-20T14:53:44.244Z,45.8
2023-02-20T14:55:00.366Z,45.9
2023-02-20T14:56:16.495Z,45.9
2023-02-20T14:57:32.619Z,45.9
2023-02-20T14:58:48.760Z,45.9
2023-02-20T15:00:04.913Z,45.9
2023-02-20T15:01:21.035Z,45.9
2023-02-20T15:02:37.172Z,45.9
2023-02-20T15:03:53.306Z,45.9
2023-02-20T15:05:09.450Z,46
2023-02-20T15:06:25.591Z,46
2023-02-20T15:07:41.718Z,46.2
2023-02-20T15:08:57.852Z,46.3
2023-02-20T15:10:13.987Z,46.4
2023-02-20T15:11:30.114Z,46.5
2023-02-20T15:12:46.266Z,54.7
2023-02-20T15:14:02.397Z,49.1
2023-02-20T15:15:18.000Z,48.6
2023-02-20T15:16:34.670Z,48.1
2023-02-20T15:17:50.797Z,47.9
2023-02-20T15:19:06.957Z,47.9
2023-02-20T15:20:23.077Z,47.8
2023-02-20T15:21:39.209Z,47.9
2023-02-20T15:22:55.340Z,47.8
2023-02-20T15:24:11.550Z,47.9
2023-02-20T15:25:26.777Z,47.9
2023-02-20T15:26:41.996Z,47.9
2023-02-20T15:27:58.117Z,47.9
2023-02-20T15:29:14.276Z,47.9
2023-02-20T15:30:30.410Z,47.9
2023-02-20T15:31:46.542Z,48
2023-02-20T15:33:02.671Z,48
2023-02-20T15:34:18.794Z,48
2023-02-20T15:35:34.944Z,48
2023-02-20T15:36:51.087Z,48.1
2023-02-20T15:38:07.218Z,48.1
2023-02-20T15:39:23.352Z,48.1
2023-02-20T15:40:39.475Z,48.1
2023-02-20T15:41:55.622Z,48.1
2023-02-20T15:43:11.758Z,48.2
2023-02-20T15:44:27.903Z,48.2
2023-02-20T15:45:44.025Z,48.2
2023-02-20T15:47:00.162Z,48.2
2023-02-20T15:48:16.299Z,48.3
2023-02-20T15:49:32.436Z,48.3
2023-02-20T15:50:48.566Z,48.3
2023-02-20T15:52:04.711Z,48.3
2023-02-20T15:53:20.835Z,48.3
2023-02-20T15:54:36.997Z,48.3
2023-02-20T15:55:53.118Z,48.3
2023-02-20T15:57:09.264Z,48.3
2023-02-20T15:58:25.448Z,48.3
2023-02-20T15:59:40.691Z,48.4
2023-02-20T16:00:56.870Z,48.3
2023-02-20T16:02:12.081Z,48.3
2023-02-20T16:03:28.213Z,48.3
2023-02-20T16:04:44.368Z,48.3
2023-02-20T16:06:00.502Z,48.3
2023-02-20T16:07:16.626Z,48.4
2023-02-20T16:08:32.768Z,48.4
2023-02-20T16:09:48.888Z,48.4
2023-02-20T16:11:05.044Z,48.4
2023-02-20T16:12:21.180Z,48.4
2023-02-20T16:13:37.317Z,48.4
2023-02-20T16:14:53.447Z,48.4
2023-02-20T16:16:09.568Z,48.5
2023-02-20T16:17:25.715Z,48.5
2023-02-20T16:18:41.858Z,48.4
2023-02-20T16:19:57.993Z,48.4
2023-02-20T16:21:14.127Z,48.4
2023-02-20T16:22:30.263Z,48.4
2023-02-20T16:23:46.400Z,48.4
2023-02-20T16:25:02.537Z,48.4
2023-02-20T16:26:18.675Z,48.4
2023-02-20T16:27:34.812Z,48.4
2023-02-20T16:28:50.942Z,48.5
2023-02-20T16:30:07.091Z,48.5
2023-02-20T16:31:23.209Z,48.5
2023-02-20T16:32:39.352Z,48.5
2023-02-20T16:33:55.554Z,48.6
2023-02-20T16:35:10.778Z,48.6
2023-02-20T16:36:25.992Z,48.5
2023-02-20T16:37:41.134Z,48.5
2023-02-20T16:38:57.284Z,48.5
2023-02-20T16:40:13.429Z,48.5
2023-02-20T16:41:29.556Z,48.5
2023-02-20T16:42:45.694Z,48.5
2023-02-20T16:44:01.826Z,48.5
2023-02-20T16:45:17.974Z,48.5
2023-02-20T16:46:34.097Z,48.5
2023-02-20T16:47:50.229Z,48.5
2023-02-20T16:49:06.376Z,48.5
2023-02-20T16:50:22.510Z,48.5
2023-02-20T16:51:38.648Z,48.6
2023-02-20T16:52:54.792Z,48.5
2023-02-20T16:54:10.921Z,48.5
2023-02-20T16:55:27.053Z,48.5
2023-02-20T16:56:43.188Z,48.5
2023-02-20T16:57:59.322Z,48.5
2023-02-20T16:59:15.457Z,48.5
2023-02-20T17:00:31.590Z,48.5
2023-02-20T17:01:47.726Z,48.5
2023-02-20T17:03:03.868Z,48.5
2023-02-20T17:04:20.007Z,48.6
2023-02-20T17:05:36.152Z,48.6
2023-02-20T17:06:52.271Z,48.6